Time;durP1;ratioP1;P1;durP2;ratioP2;P2;SDS_P1;SDS_P2;PMS_P1;PMS_P2;Temp;Humidity;BMP_temperature;BMP_pressure;BME280_temperature;BME280_humidity;BME280_pressure;Samples;Min_cycle;Max_cycle;Signal;HPM_P1;HPM_P2
2024/01/17 00:00:21;;;;;;;;;;;19.10;47.80;;;;;;5012978;28;19925;-66
2024/01/17 00:02:48;;;;;;;;;;;19.10;47.80;;;;;;5010258;28;20015;-66
2024/01/17 00:05:13;;;;;;;;;;;19.00;47.70;;;;;;5035752;28;20027;-66
2024/01/17 00:07:39;;;;;;;;;;;19.00;47.70;;;;;;5035696;28;19987;-66
2024/01/17 00:10:05;;;;;;;;;;;19.00;47.70;;;;;;5051328;28;20317;-66
2024/01/17 00:12:30;;;;;;;;;;;19.00;47.70;;;;;;5026471;28;19932;-66
2024/01/17 00:14:56;;;;;;;;;;;19.00;47.70;;;;;;5029864;28;19986;-66
2024/01/17 00:17:21;;;;;;;;;;;19.00;47.70;;;;;;5022621;28;20407;-66
2024/01/17 00:19:47;;;;;;;;;;;19.00;47.70;;;;;;5013920;28;20308;-66
2024/01/17 00:22:14;;;;;;;;;;;19.00;47.70;;;;;;5013115;28;19932;-66
2024/01/17 00:24:39;;;;;;;;;;;19.00;47.60;;;;;;4995253;28;20105;-66
2024/01/17 00:27:05;;;;;;;;;;;19.00;47.70;;;;;;5019462;28;19972;-66
2024/01/17 00:29:31;;;;;;;;;;;18.90;47.50;;;;;;5015862;28;19925;-66
2024/01/17 00:31:56;;;;;;;;;;;18.90;47.40;;;;;;5032115;28;19925;-66
2024/01/17 00:34:22;;;;;;;;;;;18.90;47.50;;;;;;5015886;28;19932;-66
2024/01/17 00:36:47;;;;;;;;;;;18.90;47.50;;;;;;5047532;28;19931;-66
2024/01/17 00:39:13;;;;;;;;;;;18.90;47.50;;;;;;5052183;28;20023;-66
2024/01/17 00:41:39;;;;;;;;;;;18.90;47.40;;;;;;5053252;28;19925;-66
2024/01/17 00:44:05;;;;;;;;;;;18.90;47.40;;;;;;5053058;28;20362;-66
2024/01/17 00:46:30;;;;;;;;;;;18.90;47.50;;;;;;5052439;28;19925;-66
2024/01/17 00:48:56;;;;;;;;;;;18.80;47.40;;;;;;5052674;28;19925;-66
2024/01/17 00:51:22;;;;;;;;;;;18.80;47.40;;;;;;5052293;28;19932;-66
2024/01/17 00:53:48;;;;;;;;;;;18.80;47.50;;;;;;5035040;28;19925;-66
2024/01/17 00:56:13;;;;;;;;;;;18.80;47.40;;;;;;5034732;28;19985;-66
2024/01/17 00:58:38;;;;;;;;;;;18.80;47.50;;;;;;5052117;28;19952;-66
2024/01/17 01:01:04;;;;;;;;;;;18.80;47.40;;;;;;5038388;28;20400;-66
2024/01/17 01:03:29;;;;;;;;;;;18.80;47.40;;;;;;5015328;28;20007;-66
2024/01/17 01:05:55;;;;;;;;;;;18.80;47.40;;;;;;5032173;28;20414;-66
2024/01/17 01:08:20;;;;;;;;;;;18.80;47.40;;;;;;5032886;28;20006;-66
2024/01/17 01:10:46;;;;;;;;;;;18.80;47.40;;;;;;5015248;28;19925;-66
2024/01/17 01:13:11;;;;;;;;;;;18.80;47.40;;;;;;5031570;28;19980;-66
2024/01/17 01:15:37;;;;;;;;;;;18.80;47.40;;;;;;5032800;28;19932;-66
2024/01/17 01:18:03;;;;;;;;;;;18.80;47.40;;;;;;5032583;28;19929;-66
2024/01/17 01:20:29;;;;;;;;;;;18.80;47.40;;;;;;5032332;28;19925;-66
2024/01/17 01:22:54;;;;;;;;;;;18.80;47.40;;;;;;5032440;28;20273;-66
2024/01/17 01:25:20;;;;;;;;;;;18.80;47.40;;;;;;5032794;28;19932;-66
2024/01/17 01:27:45;;;;;;;;;;;18.80;47.30;;;;;;5031848;28;19979;-66
2024/01/17 01:30:11;;;;;;;;;;;18.80;47.40;;;;;;5014619;28;19958;-66
2024/01/17 01:32:37;;;;;;;;;;;18.80;47.40;;;;;;5032854;28;19965;-66
2024/01/17 01:35:03;;;;;;;;;;;18.80;47.40;;;;;;5035047;28;19960;-65
2024/01/17 01:37:28;;;;;;;;;;;18.80;47.40;;;;;;5018717;28;19932;-66
2024/01/17 01:39:54;;;;;;;;;;;18.80;47.40;;;;;;5036086;28;19929;-66
2024/01/17 01:42:19;;;;;;;;;;;18.80;47.40;;;;;;5035546;28;19925;-66
2024/01/17 01:44:45;;;;;;;;;;;18.80;47.90;;;;;;5018506;28;19931;-66
2024/01/17 01:47:10;;;;;;;;;;;18.70;47.30;;;;;;5035821;28;19929;-66
2024/01/17 01:49:36;;;;;;;;;;;18.70;47.30;;;;;;5035727;28;19921;-66
2024/01/17 01:52:02;;;;;;;;;;;18.70;47.20;;;;;;5018033;28;20041;-66
2024/01/17 01:54:27;;;;;;;;;;;18.80;47.30;;;;;;5018728;28;19925;-66
2024/01/17 01:56:53;;;;;;;;;;;18.70;47.20;;;;;;5034984;28;20008;-66
2024/01/17 01:59:19;;;;;;;;;;;18.70;47.10;;;;;;5018202;28;20359;-65
2024/01/17 02:01:44;;;;;;;;;;;18.70;47.10;;;;;;5017533;28;19921;-66
2024/01/17 02:04:10;;;;;;;;;;;18.70;47.10;;;;;;5035867;28;19925;-66
2024/01/17 02:06:35;;;;;;;;;;;18.70;47.10;;;;;;5018196;28;19936;-66
2024/01/17 02:09:01;;;;;;;;;;;18.70;47.10;;;;;;5021128;28;19972;-66
2024/01/17 02:11:28;;;;;;;;;;;18.70;47.20;;;;;;5016221;28;19948;-66
2024/01/17 02:13:53;;;;;;;;;;;18.70;47.10;;;;;;4981876;28;19925;-66
2024/01/17 02:16:19;;;;;;;;;;;18.70;47.20;;;;;;4997867;28;20373;-66
2024/01/17 02:18:44;;;;;;;;;;;18.70;47.20;;;;;;5016057;28;19985;-66
2024/01/17 02:21:10;;;;;;;;;;;18.70;47.20;;;;;;5006269;28;19932;-66
2024/01/17 02:23:36;;;;;;;;;;;18.70;47.20;;;;;;5034767;28;20063;-66
2024/01/17 02:26:02;;;;;;;;;;;18.70;47.20;;;;;;5035008;28;19975;-65
2024/01/17 02:28:28;;;;;;;;;;;18.70;47.20;;;;;;5035491;28;19925;-66
2024/01/17 02:30:54;;;;;;;;;;;18.70;47.10;;;;;;5034236;28;20789;-66
2024/01/17 02:33:19;;;;;;;;;;;18.70;47.10;;;;;;5017832;28;19925;-66
2024/01/17 02:35:45;;;;;;;;;;;18.70;47.20;;;;;;5001480;28;19929;-66
2024/01/17 02:38:10;;;;;;;;;;;18.80;47.20;;;;;;5016467;28;19932;-65
2024/01/17 02:40:35;;;;;;;;;;;18.70;47.90;;;;;;5021529;28;19925;-66
2024/01/17 02:43:01;;;;;;;;;;;18.80;47.10;;;;;;5014208;28;19926;-65
2024/01/17 02:45:26;;;;;;;;;;;18.80;47.10;;;;;;5012952;28;19936;-65
2024/01/17 02:47:52;;;;;;;;;;;18.80;47.10;;;;;;5015093;28;19926;-66
2024/01/17 02:50:18;;;;;;;;;;;18.80;47.20;;;;;;5015481;28;19932;-65
2024/01/17 02:52:44;;;;;;;;;;;18.80;47.10;;;;;;4997102;28;19979;-65
2024/01/17 02:55:10;;;;;;;;;;;18.80;47.10;;;;;;5014861;28;19926;-66
2024/01/17 02:57:35;;;;;;;;;;;18.80;47.10;;;;;;5015034;28;19930;-66
2024/01/17 03:00:01;;;;;;;;;;;18.80;47.10;;;;;;5013839;28;19929;-66
2024/01/17 03:02:26;;;;;;;;;;;18.80;47.10;;;;;;4997763;28;19926;-65
2024/01/17 03:04:52;;;;;;;;;;;18.80;47.10;;;;;;4996649;28;20397;-66
2024/01/17 03:07:17;;;;;;;;;;;18.70;47.00;;;;;;4996858;28;19995;-66
2024/01/17 03:09:43;;;;;;;;;;;18.80;47.00;;;;;;5027664;28;20304;-66
2024/01/17 03:12:09;;;;;;;;;;;18.80;47.00;;;;;;5033395;28;20396;-66
2024/01/17 03:14:35;;;;;;;;;;;18.80;47.10;;;;;;5034712;28;19925;-66
2024/01/17 03:17:01;;;;;;;;;;;18.80;47.00;;;;;;5034574;28;19929;-66
2024/01/17 03:19:26;;;;;;;;;;;18.80;47.00;;;;;;5034012;28;20454;-66
2024/01/17 03:21:52;;;;;;;;;;;18.80;47.00;;;;;;5034221;28;19931;-66
2024/01/17 03:24:17;;;;;;;;;;;18.80;47.00;;;;;;5034529;28;19925;-66
2024/01/17 03:26:43;;;;;;;;;;;18.80;47.00;;;;;;5012574;28;19925;-66
2024/01/17 03:29:08;;;;;;;;;;;18.80;47.00;;;;;;5014063;28;19926;-66
2024/01/17 03:31:34;;;;;;;;;;;18.80;47.00;;;;;;5014491;28;20456;-66
2024/01/17 03:33:59;;;;;;;;;;;18.80;47.00;;;;;;5012202;28;19975;-66
2024/01/17 03:36:25;;;;;;;;;;;18.80;47.00;;;;;;5014738;28;19933;-65
2024/01/17 03:38:50;;;;;;;;;;;18.80;47.00;;;;;;5013656;28;20373;-66
2024/01/17 03:41:16;;;;;;;;;;;18.80;47.00;;;;;;5013325;28;19926;-66
2024/01/17 03:43:43;;;;;;;;;;;18.80;47.00;;;;;;5012884;28;19932;-66
2024/01/17 03:46:09;;;;;;;;;;;18.80;47.00;;;;;;5010248;28;20440;-66
2024/01/17 03:48:34;;;;;;;;;;;18.90;47.00;;;;;;4993437;28;19925;-66
2024/01/17 03:51:00;;;;;;;;;;;18.90;47.00;;;;;;4993021;28;20385;-66
2024/01/17 03:53:25;;;;;;;;;;;18.90;47.00;;;;;;4994517;28;20032;-66
2024/01/17 03:55:51;;;;;;;;;;;18.90;47.00;;;;;;4991850;28;19926;-66
2024/01/17 03:58:16;;;;;;;;;;;18.90;47.00;;;;;;4993219;28;20004;-65
2024/01/17 04:00:42;;;;;;;;;;;18.90;47.00;;;;;;4993495;28;19969;-65
2024/01/17 04:03:11;;;;;;;;;;;18.90;47.00;;;;;;4993363;28;19926;-66
2024/01/17 04:05:37;;;;;;;;;;;18.90;47.00;;;;;;4993114;28;19922;-66
2024/01/17 04:08:03;;;;;;;;;;;18.90;47.00;;;;;;4994098;28;19948;-66
2024/01/17 04:10:29;;;;;;;;;;;19.00;47.00;;;;;;4993593;28;20326;-66
2024/01/17 04:12:54;;;;;;;;;;;19.00;47.00;;;;;;4993919;28;19948;-66
2024/01/17 04:15:20;;;;;;;;;;;19.00;47.00;;;;;;4993647;28;19926;-66
2024/01/17 04:17:45;;;;;;;;;;;19.00;47.00;;;;;;4994425;28;20016;-66
2024/01/17 04:20:11;;;;;;;;;;;19.00;47.00;;;;;;4993995;28;20275;-66
2024/01/17 04:22:36;;;;;;;;;;;19.00;46.90;;;;;;4992739;28;19922;-66
2024/01/17 04:25:02;;;;;;;;;;;19.00;46.90;;;;;;4996462;28;20281;-66
2024/01/17 04:27:28;;;;;;;;;;;19.00;46.90;;;;;;5013440;28;19933;-66
2024/01/17 04:29:53;;;;;;;;;;;19.00;46.90;;;;;;5012740;28;19944;-66
2024/01/17 04:32:19;;;;;;;;;;;19.00;46.90;;;;;;4995814;28;19933;-65
2024/01/17 04:34:46;;;;;;;;;;;19.00;46.80;;;;;;5013059;28;20306;-66
2024/01/17 04:37:11;;;;;;;;;;;19.10;46.90;;;;;;5012754;28;20015;-66
2024/01/17 04:39:37;;;;;;;;;;;19.10;46.90;;;;;;5013456;28;20369;-66
2024/01/17 04:42:03;;;;;;;;;;;19.10;46.80;;;;;;4995550;28;19925;-66
2024/01/17 04:44:30;;;;;;;;;;;19.10;46.90;;;;;;5012891;28;20364;-66
2024/01/17 04:46:59;;;;;;;;;;;19.10;46.80;;;;;;5013112;28;19929;-66
2024/01/17 04:49:27;;;;;;;;;;;19.10;46.80;;;;;;5013459;28;19996;-66
2024/01/17 04:51:53;;;;;;;;;;;19.10;46.80;;;;;;5012253;28;19926;-66
2024/01/17 04:54:19;;;;;;;;;;;19.10;46.70;;;;;;5013290;28;19925;-65
2024/01/17 04:56:45;;;;;;;;;;;19.20;46.90;;;;;;4995975;28;19936;-65
2024/01/17 04:59:10;;;;;;;;;;;19.20;46.80;;;;;;5010795;28;20337;-66
2024/01/17 05:01:36;;;;;;;;;;;19.20;46.80;;;;;;5025253;28;19975;-65
2024/01/17 05:04:02;;;;;;;;;;;19.20;46.80;;;;;;5032546;28;19932;-66
2024/01/17 05:06:28;;;;;;;;;;;19.20;46.80;;;;;;5031554;28;20036;-65
2024/01/17 05:08:56;;;;;;;;;;;19.20;46.80;;;;;;5036065;28;20333;-65
2024/01/17 05:11:24;;;;;;;;;;;19.20;46.70;;;;;;5037855;28;19963;-65
2024/01/17 05:13:50;;;;;;;;;;;19.20;46.70;;;;;;5035883;28;19925;-65
2024/01/17 05:16:15;;;;;;;;;;;19.20;46.80;;;;;;5036639;28;20269;-66
2024/01/17 05:18:41;;;;;;;;;;;19.20;46.70;;;;;;5036258;28;19925;-65
2024/01/17 05:21:07;;;;;;;;;;;19.20;46.70;;;;;;5036535;28;20396;-65
2024/01/17 05:23:32;;;;;;;;;;;19.30;46.70;;;;;;5036594;28;19933;-66
2024/01/17 05:25:58;;;;;;;;;;;19.30;46.70;;;;;;5035510;28;19925;-65
2024/01/17 05:28:23;;;;;;;;;;;19.30;46.70;;;;;;5036712;28;20016;-65
2024/01/17 05:30:49;;;;;;;;;;;19.20;46.60;;;;;;5018816;28;19925;-65
2024/01/17 05:33:14;;;;;;;;;;;19.30;46.60;;;;;;5017898;28;20035;-65
2024/01/17 05:35:40;;;;;;;;;;;19.30;46.70;;;;;;5036539;28;19971;-65
2024/01/17 05:38:06;;;;;;;;;;;19.30;46.60;;;;;;5035902;28;19976;-65
2024/01/17 05:40:31;;;;;;;;;;;19.30;46.60;;;;;;5035836;28;19925;-66
2024/01/17 05:42:57;;;;;;;;;;;19.30;46.60;;;;;;5018605;28;19925;-65
2024/01/17 05:45:22;;;;;;;;;;;19.30;46.60;;;;;;5036414;28;20377;-66
2024/01/17 05:47:48;;;;;;;;;;;19.30;46.60;;;;;;5035257;28;19925;-66
2024/01/17 05:50:13;;;;;;;;;;;19.30;46.60;;;;;;5035888;28;19979;-66
2024/01/17 05:52:39;;;;;;;;;;;19.40;46.60;;;;;;5035837;28;20373;-65
2024/01/17 05:55:06;;;;;;;;;;;19.30;46.60;;;;;;5035275;28;19925;-65
2024/01/17 05:57:32;;;;;;;;;;;19.30;46.60;;;;;;5018249;28;19925;-65
2024/01/17 05:59:57;;;;;;;;;;;19.40;46.60;;;;;;5027192;28;19951;-65
2024/01/17 06:02:23;;;;;;;;;;;19.40;46.60;;;;;;5027405;28;19925;-65
2024/01/17 06:04:48;;;;;;;;;;;19.40;46.60;;;;;;5016177;28;19969;-65
2024/01/17 06:07:14;;;;;;;;;;;19.40;46.60;;;;;;4998209;28;19933;-66
2024/01/17 06:09:42;;;;;;;;;;;19.30;46.60;;;;;;5015338;28;19935;-65
2024/01/17 06:12:07;;;;;;;;;;;19.40;46.60;;;;;;5015572;28;19926;-65
2024/01/17 06:14:33;;;;;;;;;;;19.40;46.60;;;;;;5016052;28;19926;-65
2024/01/17 06:16:58;;;;;;;;;;;19.40;46.50;;;;;;4997445;28;20019;-65
2024/01/17 06:19:24;;;;;;;;;;;19.40;46.50;;;;;;5015403;28;19925;-65
2024/01/17 06:21:49;;;;;;;;;;;19.40;46.50;;;;;;5015602;28;20428;-65
2024/01/17 06:24:15;;;;;;;;;;;19.40;46.50;;;;;;4998036;28;19929;-65
2024/01/17 06:26:41;;;;;;;;;;;19.40;46.50;;;;;;5015563;28;19926;-66
2024/01/17 06:29:06;;;;;;;;;;;19.40;46.50;;;;;;5014559;28;19936;-66
2024/01/17 06:31:31;;;;;;;;;;;19.50;46.50;;;;;;5015524;28;19921;-65
2024/01/17 06:33:57;;;;;;;;;;;19.50;46.60;;;;;;5015393;28;20007;-65
2024/01/17 06:36:24;;;;;;;;;;;19.50;46.50;;;;;;5014908;28;19972;-65
2024/01/17 06:38:50;;;;;;;;;;;19.50;46.50;;;;;;5015470;28;19926;-66
2024/01/17 06:41:17;;;;;;;;;;;19.50;46.50;;;;;;5015370;28;20020;-65
2024/01/17 06:43:42;;;;;;;;;;;19.50;46.50;;;;;;5014761;28;19926;-66
2024/01/17 06:46:08;;;;;;;;;;;19.50;46.50;;;;;;5015104;28;19933;-66
2024/01/17 06:48:33;;;;;;;;;;;19.50;46.50;;;;;;4998007;28;19932;-65
2024/01/17 06:50:59;;;;;;;;;;;19.50;46.50;;;;;;4996471;28;20293;-66
2024/01/17 06:53:24;;;;;;;;;;;19.50;46.40;;;;;;4997929;28;19934;-65
2024/01/17 06:55:50;;;;;;;;;;;19.50;46.40;;;;;;5015587;28;20373;-65
2024/01/17 06:58:16;;;;;;;;;;;19.50;46.40;;;;;;4996713;28;19988;-64
2024/01/17 07:00:43;;;;;;;;;;;19.50;46.40;;;;;;5015250;28;20274;-65
2024/01/17 07:03:08;;;;;;;;;;;19.50;46.40;;;;;;5027990;28;20377;-66
2024/01/17 07:05:34;;;;;;;;;;;19.50;46.50;;;;;;5034253;28;19972;-66
2024/01/17 07:07:59;;;;;;;;;;;19.50;46.50;;;;;;5017044;28;19936;-65
2024/01/17 07:10:25;;;;;;;;;;;19.60;46.50;;;;;;5034984;28;19979;-65
2024/01/17 07:12:53;;;;;;;;;;;19.60;46.50;;;;;;5033911;28;19925;-65
2024/01/17 07:15:19;;;;;;;;;;;19.60;46.50;;;;;;5034482;28;20280;-65
2024/01/17 07:17:44;;;;;;;;;;;19.60;46.60;;;;;;5016927;28;20055;-65
2024/01/17 07:20:11;;;;;;;;;;;19.60;46.60;;;;;;5033248;28;19925;-65
2024/01/17 07:22:42;;;;;;;;;;;19.60;47.30;;;;;;5034732;28;19933;-65
2024/01/17 07:25:08;;;;;;;;;;;19.50;46.60;;;;;;5033667;28;19932;-66
2024/01/17 07:27:34;;;;;;;;;;;19.60;46.80;;;;;;5016586;28;19926;-65
2024/01/17 07:29:59;;;;;;;;;;;19.60;47.00;;;;;;5033183;28;19925;-65
2024/01/17 07:32:25;;;;;;;;;;;19.60;47.10;;;;;;5031120;28;19955;-66
2024/01/17 07:34:50;;;;;;;;;;;19.60;47.20;;;;;;5033015;28;19925;-67
2024/01/17 07:37:16;;;;;;;;;;;19.60;47.30;;;;;;5012470;28;19934;-65
2024/01/17 07:39:43;;;;;;;;;;;19.60;47.30;;;;;;5011848;28;20008;-66
2024/01/17 07:42:08;;;;;;;;;;;19.60;47.20;;;;;;5013684;28;20016;-66
2024/01/17 07:44:34;;;;;;;;;;;19.60;47.20;;;;;;4996680;28;20028;-66
2024/01/17 07:47:00;;;;;;;;;;;19.60;47.20;;;;;;4995590;28;19932;-67
2024/01/17 07:49:25;;;;;;;;;;;19.70;47.30;;;;;;5014223;28;19976;-66
2024/01/17 07:51:51;;;;;;;;;;;19.70;47.20;;;;;;5014158;28;19979;-65
2024/01/17 07:54:17;;;;;;;;;;;19.60;47.10;;;;;;5013482;28;19930;-64
2024/01/17 07:56:43;;;;;;;;;;;19.70;47.10;;;;;;5014335;28;19925;-67
2024/01/17 07:59:08;;;;;;;;;;;19.70;46.90;;;;;;4996207;28;19979;-66
2024/01/17 08:01:34;;;;;;;;;;;19.70;47.00;;;;;;5013307;28;20302;-67
2024/01/17 08:03:59;;;;;;;;;;;19.70;47.10;;;;;;5013684;28;19925;-67
2024/01/17 08:06:25;;;;;;;;;;;19.70;47.20;;;;;;5014198;28;20278;-67
2024/01/17 08:08:50;;;;;;;;;;;19.70;47.30;;;;;;4995849;28;19968;-67
2024/01/17 08:11:16;;;;;;;;;;;19.70;47.30;;;;;;4996273;28;19936;-66
2024/01/17 08:13:41;;;;;;;;;;;19.70;47.20;;;;;;4996064;28;20017;-69
2024/01/17 08:16:07;;;;;;;;;;;19.70;47.20;;;;;;5012814;28;20396;-69
2024/01/17 08:18:32;;;;;;;;;;;19.70;47.20;;;;;;5013801;28;19921;-70
2024/01/17 08:20:58;;;;;;;;;;;19.70;47.10;;;;;;4995325;28;20075;-69
2024/01/17 08:23:23;;;;;;;;;;;19.70;47.10;;;;;;5023661;28;19979;-64
2024/01/17 08:25:49;;;;;;;;;;;19.70;47.40;;;;;;5032917;28;20024;-65
2024/01/17 08:28:14;;;;;;;;;;;19.80;47.60;;;;;;5032645;28;19929;-66
2024/01/17 08:30:40;;;;;;;;;;;19.70;47.50;;;;;;5014804;28;19929;-67
2024/01/17 08:33:05;;;;;;;;;;;19.80;47.60;;;;;;5015025;28;19925;-65
2024/01/17 08:35:31;;;;;;;;;;;19.80;47.70;;;;;;5032212;28;20258;-69
2024/01/17 08:37:56;;;;;;;;;;;19.80;47.60;;;;;;5033148;28;19925;-68
2024/01/17 08:40:22;;;;;;;;;;;19.80;47.50;;;;;;5012300;28;19933;-67
2024/01/17 08:42:47;;;;;;;;;;;19.80;47.40;;;;;;5029691;28;20706;-67
2024/01/17 08:45:14;;;;;;;;;;;19.80;47.00;;;;;;5032529;28;19932;-67
2024/01/17 08:47:42;;;;;;;;;;;19.80;47.10;;;;;;5032596;28;19960;-67
2024/01/17 08:50:08;;;;;;;;;;;19.80;47.10;;;;;;5031930;28;19929;-67
2024/01/17 08:52:33;;;;;;;;;;;19.80;47.20;;;;;;5030251;28;20342;-67
2024/01/17 08:55:01;;;;;;;;;;;19.80;47.20;;;;;;5032379;28;20027;-67
2024/01/17 08:57:27;;;;;;;;;;;19.80;47.10;;;;;;5031678;28;20369;-67
2024/01/17 08:59:52;;;;;;;;;;;19.80;47.20;;;;;;5032329;28;19926;-67
2024/01/17 09:02:18;;;;;;;;;;;19.90;47.20;;;;;;5032623;28;19925;-68
2024/01/17 09:04:43;;;;;;;;;;;19.80;47.10;;;;;;5032460;28;20494;-68
2024/01/17 09:07:09;;;;;;;;;;;19.90;47.90;;;;;;5032801;28;19925;-68
2024/01/17 09:09:35;;;;;;;;;;;19.90;47.10;;;;;;5032433;28;20253;-68
2024/01/17 09:12:00;;;;;;;;;;;19.90;47.10;;;;;;5031070;28;19992;-67
2024/01/17 09:14:26;;;;;;;;;;;19.80;47.00;;;;;;5014299;28;19961;-68
2024/01/17 09:16:51;;;;;;;;;;;19.90;47.00;;;;;;5014322;28;20020;-68
2024/01/17 09:19:17;;;;;;;;;;;19.90;47.00;;;;;;5031555;28;19980;-68
2024/01/17 09:21:43;;;;;;;;;;;19.90;47.00;;;;;;5032362;28;19980;-68
2024/01/17 09:24:08;;;;;;;;;;;19.90;47.00;;;;;;5032389;28;19924;-68
2024/01/17 09:26:34;;;;;;;;;;;19.90;47.00;;;;;;5032008;28;19925;-68
2024/01/17 09:29:00;;;;;;;;;;;19.90;46.90;;;;;;5014723;28;20020;-68
2024/01/17 09:31:25;;;;;;;;;;;19.90;46.90;;;;;;5014982;28;19952;-68
2024/01/17 09:33:51;;;;;;;;;;;19.90;46.80;;;;;;5031964;28;19925;-68
2024/01/17 09:36:16;;;;;;;;;;;19.90;46.80;;;;;;5032993;28;19929;-68
2024/01/17 09:38:42;;;;;;;;;;;19.90;46.80;;;;;;5015016;28;19995;-68
2024/01/17 09:41:08;;;;;;;;;;;19.90;46.80;;;;;;5013940;28;19960;-68
2024/01/17 09:43:33;;;;;;;;;;;19.90;46.70;;;;;;4998638;28;19926;-68
2024/01/17 09:46:00;;;;;;;;;;;19.90;46.70;;;;;;5031802;28;20386;-68
2024/01/17 09:48:25;;;;;;;;;;;19.90;46.70;;;;;;5015134;28;19976;-68
2024/01/17 09:50:51;;;;;;;;;;;20.00;46.70;;;;;;5032492;28;19960;-68
2024/01/17 09:53:16;;;;;;;;;;;19.90;46.70;;;;;;5014333;28;19929;-68
2024/01/17 09:55:42;;;;;;;;;;;20.00;46.70;;;;;;5017660;28;19925;-68
2024/01/17 09:58:08;;;;;;;;;;;20.00;46.70;;;;;;5018108;28;19933;-68
2024/01/17 10:00:33;;;;;;;;;;;20.00;46.60;;;;;;5017585;28;19974;-68
2024/01/17 10:02:59;;;;;;;;;;;20.00;46.60;;;;;;5018282;28;19991;-68
2024/01/17 10:05:26;;;;;;;;;;;20.00;46.60;;;;;;5018291;28;19932;-68
2024/01/17 10:07:52;;;;;;;;;;;20.00;46.60;;;;;;5035230;28;19948;-68
2024/01/17 10:10:21;;;;;;;;;;;20.00;46.50;;;;;;5035855;28;19972;-68
2024/01/17 10:12:47;;;;;;;;;;;20.00;46.40;;;;;;5035713;28;19929;-68
2024/01/17 10:15:13;;;;;;;;;;;20.00;46.50;;;;;;5032821;28;19948;-68
2024/01/17 10:17:38;;;;;;;;;;;20.00;46.50;;;;;;5030763;28;19929;-68
2024/01/17 10:20:04;;;;;;;;;;;20.00;46.50;;;;;;5035265;28;19979;-68
2024/01/17 10:22:31;;;;;;;;;;;20.00;46.50;;;;;;5034998;28;19979;-68
2024/01/17 10:24:57;;;;;;;;;;;19.90;46.40;;;;;;5017876;28;19933;-68
2024/01/17 10:27:22;;;;;;;;;;;19.90;46.40;;;;;;5017932;28;20266;-68
2024/01/17 10:29:48;;;;;;;;;;;19.90;46.40;;;;;;5012899;28;19925;-68
2024/01/17 10:32:13;;;;;;;;;;;19.90;46.40;;;;;;5015375;28;19932;-68
2024/01/17 10:34:38;;;;;;;;;;;19.90;46.40;;;;;;4998146;28;19926;-68
2024/01/17 10:37:05;;;;;;;;;;;20.00;46.40;;;;;;4997103;28;20017;-68
2024/01/17 10:39:30;;;;;;;;;;;19.90;46.30;;;;;;5015840;28;19926;-68
2024/01/17 10:41:58;;;;;;;;;;;19.90;46.30;;;;;;4998118;28;19983;-68
2024/01/17 10:44:25;;;;;;;;;;;19.90;47.00;;;;;;5014497;28;19925;-68
2024/01/17 10:46:53;;;;;;;;;;;19.90;46.30;;;;;;4998188;28;19972;-68
2024/01/17 10:49:22;;;;;;;;;;;19.90;46.10;;;;;;5017363;28;19926;-69
2024/01/17 10:52:00;;;;;;;;;;;19.90;45.40;;;;;;5015504;28;19955;-69
2024/01/17 10:54:29;;;;;;;;;;;19.90;45.60;;;;;;5015142;28;19952;-68
2024/01/17 10:56:54;;;;;;;;;;;19.90;45.60;;;;;;5014086;28;19925;-69
2024/01/17 10:59:20;;;;;;;;;;;19.90;45.60;;;;;;4997500;28;19925;-67
2024/01/17 11:01:47;;;;;;;;;;;19.90;45.70;;;;;;5033622;28;19932;-68
2024/01/17 11:04:39;;;;;;;;;;;19.90;45.60;;;;;;5004136;28;20443;-68
2024/01/17 11:07:04;;;;;;;;;;;19.90;45.70;;;;;;5021481;28;19925;-68
2024/01/17 11:09:30;;;;;;;;;;;19.90;45.80;;;;;;4999878;28;20267;-68
2024/01/17 11:11:55;;;;;;;;;;;19.90;45.80;;;;;;5033702;28;19929;-68
2024/01/17 11:14:21;;;;;;;;;;;19.90;45.80;;;;;;5000462;28;19925;-68
2024/01/17 11:16:48;;;;;;;;;;;19.90;46.00;;;;;;5016990;28;19935;-68
2024/01/17 11:19:15;;;;;;;;;;;20.00;46.10;;;;;;5016224;28;19925;-66
2024/01/17 11:21:40;;;;;;;;;;;20.00;46.10;;;;;;5034432;28;20376;-68
2024/01/17 11:24:09;;;;;;;;;;;20.00;46.20;;;;;;5034190;28;19933;-68
2024/01/17 11:26:35;;;;;;;;;;;20.00;46.30;;;;;;5015847;28;19932;-67
2024/01/17 11:29:16;;;;;;;;;;;20.00;46.20;;;;;;5016023;28;19925;-68
2024/01/17 11:31:47;;;;;;;;;;;19.90;46.20;;;;;;4996468;28;19932;-68
2024/01/17 11:34:12;;;;;;;;;;;20.00;46.30;;;;;;5014143;28;19929;-67
2024/01/17 11:36:45;;;;;;;;;;;20.00;46.30;;;;;;4997333;28;19933;-68
2024/01/17 11:39:12;;;;;;;;;;;20.00;46.30;;;;;;4996103;28;19947;-68
2024/01/17 11:41:38;;;;;;;;;;;20.00;46.30;;;;;;5014436;28;19936;-68
2024/01/17 11:44:07;;;;;;;;;;;20.00;46.40;;;;;;4996704;28;19932;-68
2024/01/17 11:46:32;;;;;;;;;;;20.00;46.40;;;;;;4996002;28;19926;-68
2024/01/17 11:48:58;;;;;;;;;;;20.00;46.30;;;;;;5013985;28;19925;-68
2024/01/17 11:51:25;;;;;;;;;;;20.00;46.30;;;;;;4996379;28;19933;-65
2024/01/17 11:53:50;;;;;;;;;;;20.00;46.40;;;;;;5013639;28;19925;-67
2024/01/17 11:56:20;;;;;;;;;;;20.00;46.00;;;;;;4996282;28;19933;-67
2024/01/17 11:58:45;;;;;;;;;;;20.00;46.00;;;;;;5014040;28;19926;-67
2024/01/17 12:01:36;;;;;;;;;;;20.00;46.10;;;;;;5013259;28;19935;-67
2024/01/17 12:04:15;;;;;;;;;;;20.00;45.90;;;;;;5012579;28;19926;-67
2024/01/17 12:06:41;;;;;;;;;;;20.00;46.00;;;;;;5013260;28;19926;-68
2024/01/17 12:09:08;;;;;;;;;;;20.00;46.00;;;;;;5013750;28;20301;-68
2024/01/17 12:11:34;;;;;;;;;;;20.00;46.10;;;;;;5013885;28;19926;-68
2024/01/17 12:13:59;;;;;;;;;;;20.00;46.10;;;;;;5012581;28;19979;-67
2024/01/17 12:16:25;;;;;;;;;;;20.00;46.20;;;;;;4995992;28;19926;-68
2024/01/17 12:18:57;;;;;;;;;;;20.00;46.20;;;;;;5013615;28;20017;-67
2024/01/17 12:21:22;;;;;;;;;;;20.00;46.20;;;;;;4995390;28;20292;-67
2024/01/17 12:23:48;;;;;;;;;;;20.00;46.20;;;;;;4996425;28;20373;-68
2024/01/17 12:26:13;;;;;;;;;;;19.90;46.20;;;;;;5013315;28;20290;-68
2024/01/17 12:28:39;;;;;;;;;;;20.00;46.20;;;;;;4995084;28;19976;-68
2024/01/17 12:31:06;;;;;;;;;;;19.90;46.20;;;;;;5013268;28;19926;-68
2024/01/17 12:33:32;;;;;;;;;;;20.00;46.20;;;;;;5013596;28;19972;-68
2024/01/17 12:36:00;;;;;;;;;;;20.00;46.20;;;;;;5012588;28;19964;-68
2024/01/17 12:38:26;;;;;;;;;;;20.00;46.20;;;;;;5013781;28;19925;-68
2024/01/17 12:40:51;;;;;;;;;;;20.00;46.20;;;;;;5013283;28;19925;-68
2024/01/17 12:43:17;;;;;;;;;;;20.00;46.20;;;;;;4995099;28;19936;-68
2024/01/17 12:45:43;;;;;;;;;;;20.00;46.20;;;;;;4996108;28;19929;-68
2024/01/17 12:48:10;;;;;;;;;;;20.00;46.20;;;;;;5012093;28;20331;-68
2024/01/17 12:50:35;;;;;;;;;;;19.90;46.10;;;;;;4995350;28;19984;-68
2024/01/17 12:53:01;;;;;;;;;;;19.90;46.10;;;;;;5011892;28;20296;-68
2024/01/17 12:55:26;;;;;;;;;;;20.00;46.20;;;;;;5013393;28;20016;-67
2024/01/17 12:57:52;;;;;;;;;;;20.00;46.20;;;;;;5012175;28;19929;-67
2024/01/17 13:00:20;;;;;;;;;;;19.90;46.10;;;;;;5012461;28;19925;-67
2024/01/17 13:02:46;;;;;;;;;;;20.00;46.10;;;;;;5012750;28;19925;-67
2024/01/17 13:05:12;;;;;;;;;;;20.00;46.20;;;;;;5013565;28;20086;-68
2024/01/17 13:07:41;;;;;;;;;;;19.90;46.10;;;;;;5032449;28;19925;-68
2024/01/17 13:10:16;;;;;;;;;;;20.00;46.20;;;;;;5032150;28;20002;-68
2024/01/17 13:12:42;;;;;;;;;;;20.00;46.10;;;;;;5032998;28;19925;-67
2024/01/17 13:15:08;;;;;;;;;;;19.90;46.10;;;;;;5025660;28;19929;-68
2024/01/17 13:17:35;;;;;;;;;;;20.00;46.20;;;;;;5012487;28;20266;-67
2024/01/17 13:20:04;;;;;;;;;;;20.00;46.20;;;;;;4995333;28;19925;-68
2024/01/17 13:22:30;;;;;;;;;;;20.00;46.20;;;;;;5013444;28;20396;-68
2024/01/17 13:24:56;;;;;;;;;;;20.00;46.20;;;;;;5011820;28;19932;-67
2024/01/17 13:27:21;;;;;;;;;;;20.00;46.30;;;;;;5013202;28;19925;-68
2024/01/17 13:29:47;;;;;;;;;;;20.00;46.20;;;;;;5016133;28;19975;-68
2024/01/17 13:32:12;;;;;;;;;;;20.00;46.20;;;;;;5016017;28;20008;-68
2024/01/17 13:34:39;;;;;;;;;;;19.90;46.20;;;;;;5016841;28;19926;-68
2024/01/17 13:37:04;;;;;;;;;;;20.00;46.30;;;;;;5016593;28;19929;-68
2024/01/17 13:39:30;;;;;;;;;;;20.00;46.30;;;;;;5015875;28;20321;-67
2024/01/17 13:41:57;;;;;;;;;;;20.00;46.20;;;;;;4999081;28;20009;-67
2024/01/17 13:44:23;;;;;;;;;;;19.90;46.80;;;;;;5000286;28;19964;-67
2024/01/17 13:46:48;;;;;;;;;;;20.00;46.20;;;;;;5035620;28;19925;-68
2024/01/17 13:49:14;;;;;;;;;;;20.00;46.20;;;;;;5018398;28;19925;-68
2024/01/17 13:51:43;;;;;;;;;;;20.00;46.20;;;;;;5036156;28;19925;-68
2024/01/17 13:54:15;;;;;;;;;;;19.90;46.20;;;;;;5050291;28;19925;-68
2024/01/17 13:56:43;;;;;;;;;;;20.00;46.20;;;;;;5056401;28;19926;-68
2024/01/17 13:59:09;;;;;;;;;;;19.90;46.20;;;;;;5054962;28;20006;-67
2024/01/17 14:01:35;;;;;;;;;;;19.90;46.20;;;;;;5056118;28;19932;-67
2024/01/17 14:04:00;;;;;;;;;;;19.90;46.20;;;;;;5055696;28;19925;-67
2024/01/17 14:06:26;;;;;;;;;;;19.90;46.20;;;;;;5037608;28;20007;-68
2024/01/17 14:08:51;;;;;;;;;;;19.90;46.20;;;;;;5055847;28;19929;-68